sensor_id;sensor_type;location;lat;lon;timestamp;P1;durP1;ratioP1;P2;durP2;ratioP2
434;SDS011;204;48.942;9.256;2023-08-12T00:01:38;7.13;;;6.30;;
434;SDS011;204;48.942;9.256;2023-08-12T00:04:04;7.37;;;6.97;;
434;SDS011;204;48.942;9.256;2023-08-12T00:06:30;8.10;;;6.63;;
434;SDS011;204;48.942;9.256;2023-08-12T00:08:55;7.30;;;6.90;;
434;SDS011;204;48.942;9.256;2023-08-12T00:11:21;6.40;;;6.00;;
434;SDS011;204;48.942;9.256;2023-08-12T00:13:46;7.37;;;6.70;;
434;SDS011;204;48.942;9.256;2023-08-12T00:16:12;8.90;;;7.30;;
434;SDS011;204;48.942;9.256;2023-08-12T00:18:37;7.43;;;7.03;;
434;SDS011;204;48.942;9.256;2023-08-12T00:21:07;6.83;;;6.43;;
434;SDS011;204;48.942;9.256;2023-08-12T00:23:39;8.50;;;6.70;;
434;SDS011;204;48.942;9.256;2023-08-12T00:26:09;6.87;;;6.47;;
434;SDS011;204;48.942;9.256;2023-08-12T00:28:34;9.00;;;5.87;;
434;SDS011;204;48.942;9.256;2023-08-12T00:31:00;7.70;;;7.30;;
434;SDS011;204;48.942;9.256;2023-08-12T00:33:25;7.23;;;6.27;;
434;SDS011;204;48.942;9.256;2023-08-12T00:35:51;6.90;;;6.50;;
434;SDS011;204;48.942;9.256;2023-08-12T00:38:17;8.50;;;6.90;;
434;SDS011;204;48.942;9.256;2023-08-12T00:40:42;7.30;;;6.90;;
434;SDS011;204;48.942;9.256;2023-08-12T00:43:08;6.90;;;6.50;;
434;SDS011;204;48.942;9.256;2023-08-12T00:45:34;6.67;;;6.27;;
434;SDS011;204;48.942;9.256;2023-08-12T00:48:00;6.60;;;5.73;;
434;SDS011;204;48.942;9.256;2023-08-12T00:50:27;7.17;;;6.73;;
434;SDS011;204;48.942;9.256;2023-08-12T00:52:54;7.63;;;7.23;;
434;SDS011;204;48.942;9.256;2023-08-12T00:55:19;6.70;;;6.30;;
434;SDS011;204;48.942;9.256;2023-08-12T00:57:46;8.17;;;7.17;;
434;SDS011;204;48.942;9.256;2023-08-12T01:00:12;7.30;;;6.90;;
434;SDS011;204;48.942;9.256;2023-08-12T01:02:38;6.20;;;5.90;;
434;SDS011;204;48.942;9.256;2023-08-12T01:05:04;8.57;;;7.20;;
434;SDS011;204;48.942;9.256;2023-08-12T01:07:30;6.33;;;5.97;;
434;SDS011;204;48.942;9.256;2023-08-12T01:09:56;8.50;;;6.70;;
434;SDS011;204;48.942;9.256;2023-08-12T01:12:29;7.13;;;6.73;;
434;SDS011;204;48.942;9.256;2023-08-12T01:15:13;6.93;;;6.53;;
434;SDS011;204;48.942;9.256;2023-08-12T01:17:42;7.60;;;6.43;;
434;SDS011;204;48.942;9.256;2023-08-12T01:20:09;10.57;;;6.43;;
434;SDS011;204;48.942;9.256;2023-08-12T01:22:40;8.53;;;6.77;;
434;SDS011;204;48.942;9.256;2023-08-12T01:25:06;5.93;;;5.63;;
434;SDS011;204;48.942;9.256;2023-08-12T01:27:33;7.67;;;6.60;;
434;SDS011;204;48.942;9.256;2023-08-12T01:30:02;7.57;;;7.17;;
434;SDS011;204;48.942;9.256;2023-08-12T01:35:21;7.03;;;6.60;;
434;SDS011;204;48.942;9.256;2023-08-12T01:37:51;7.43;;;7.03;;
434;SDS011;204;48.942;9.256;2023-08-12T01:40:18;7.77;;;6.97;;
434;SDS011;204;48.942;9.256;2023-08-12T01:42:45;9.70;;;7.60;;
434;SDS011;204;48.942;9.256;2023-08-12T01:45:11;7.90;;;6.80;;
434;SDS011;204;48.942;9.256;2023-08-12T01:47:37;8.10;;;6.50;;
434;SDS011;204;48.942;9.256;2023-08-12T01:50:02;8.10;;;7.17;;
434;SDS011;204;48.942;9.256;2023-08-12T01:52:29;11.27;;;7.00;;
434;SDS011;204;48.942;9.256;2023-08-12T01:54:54;6.83;;;6.43;;
434;SDS011;204;48.942;9.256;2023-08-12T01:57:20;7.83;;;7.20;;
434;SDS011;204;48.942;9.256;2023-08-12T01:59:46;8.50;;;8.03;;
434;SDS011;204;48.942;9.256;2023-08-12T02:02:11;8.43;;;6.77;;
434;SDS011;204;48.942;9.256;2023-08-12T02:04:39;8.00;;;7.33;;
434;SDS011;204;48.942;9.256;2023-08-12T02:07:05;7.20;;;6.77;;
434;SDS011;204;48.942;9.256;2023-08-12T02:09:30;6.97;;;6.57;;
434;SDS011;204;48.942;9.256;2023-08-12T02:11:56;6.60;;;6.20;;
434;SDS011;204;48.942;9.256;2023-08-12T02:14:22;8.57;;;6.57;;
434;SDS011;204;48.942;9.256;2023-08-12T02:16:48;8.67;;;6.70;;
434;SDS011;204;48.942;9.256;2023-08-12T02:19:13;6.73;;;6.33;;
434;SDS011;204;48.942;9.256;2023-08-12T02:21:39;8.60;;;8.10;;
434;SDS011;204;48.942;9.256;2023-08-12T02:24:05;7.03;;;6.57;;
434;SDS011;204;48.942;9.256;2023-08-12T02:26:31;7.07;;;6.57;;
434;SDS011;204;48.942;9.256;2023-08-12T02:28:57;7.50;;;6.60;;
434;SDS011;204;48.942;9.256;2023-08-12T02:31:22;9.77;;;6.90;;
434;SDS011;204;48.942;9.256;2023-08-12T02:33:48;7.43;;;6.70;;
434;SDS011;204;48.942;9.256;2023-08-12T02:36:14;10.23;;;7.13;;
434;SDS011;204;48.942;9.256;2023-08-12T02:38:40;7.40;;;7.00;;
434;SDS011;204;48.942;9.256;2023-08-12T02:41:06;7.30;;;6.90;;
434;SDS011;204;48.942;9.256;2023-08-12T02:43:31;8.97;;;7.43;;
434;SDS011;204;48.942;9.256;2023-08-12T02:45:57;6.60;;;6.20;;
434;SDS011;204;48.942;9.256;2023-08-12T02:48:22;7.20;;;6.80;;
434;SDS011;204;48.942;9.256;2023-08-12T02:50:48;8.20;;;7.80;;
434;SDS011;204;48.942;9.256;2023-08-12T02:53:14;7.90;;;6.40;;
434;SDS011;204;48.942;9.256;2023-08-12T02:55:40;7.37;;;7.00;;
434;SDS011;204;48.942;9.256;2023-08-12T02:58:06;8.10;;;7.03;;
434;SDS011;204;48.942;9.256;2023-08-12T03:00:32;7.30;;;6.90;;
434;SDS011;204;48.942;9.256;2023-08-12T03:02:57;7.33;;;6.93;;
434;SDS011;204;48.942;9.256;2023-08-12T03:05:23;7.97;;;7.57;;
434;SDS011;204;48.942;9.256;2023-08-12T03:07:49;7.47;;;7.07;;
434;SDS011;204;48.942;9.256;2023-08-12T03:10:16;7.57;;;7.17;;
434;SDS011;204;48.942;9.256;2023-08-12T03:12:42;10.23;;;7.17;;
434;SDS011;204;48.942;9.256;2023-08-12T03:15:07;7.40;;;7.00;;
434;SDS011;204;48.942;9.256;2023-08-12T03:17:33;8.80;;;6.10;;
434;SDS011;204;48.942;9.256;2023-08-12T03:19:59;6.57;;;6.17;;
434;SDS011;204;48.942;9.256;2023-08-12T03:22:25;6.07;;;5.77;;
434;SDS011;204;48.942;9.256;2023-08-12T03:24:54;8.20;;;6.47;;
434;SDS011;204;48.942;9.256;2023-08-12T03:27:19;6.70;;;6.30;;
434;SDS011;204;48.942;9.256;2023-08-12T03:29:45;7.33;;;6.93;;
434;SDS011;204;48.942;9.256;2023-08-12T03:32:11;5.97;;;5.73;;
434;SDS011;204;48.942;9.256;2023-08-12T03:34:36;8.00;;;6.80;;
434;SDS011;204;48.942;9.256;2023-08-12T03:37:03;7.60;;;7.20;;
434;SDS011;204;48.942;9.256;2023-08-12T03:39:28;7.20;;;6.80;;
434;SDS011;204;48.942;9.256;2023-08-12T03:41:54;6.57;;;6.17;;
434;SDS011;204;48.942;9.256;2023-08-12T03:44:20;7.50;;;7.10;;
434;SDS011;204;48.942;9.256;2023-08-12T03:46:45;7.03;;;6.60;;
434;SDS011;204;48.942;9.256;2023-08-12T03:49:11;6.50;;;6.13;;
434;SDS011;204;48.942;9.256;2023-08-12T03:51:36;7.40;;;7.00;;
434;SDS011;204;48.942;9.256;2023-08-12T03:54:02;6.93;;;6.53;;
434;SDS011;204;48.942;9.256;2023-08-12T03:56:28;7.10;;;6.70;;
434;SDS011;204;48.942;9.256;2023-08-12T03:58:54;7.70;;;7.30;;
434;SDS011;204;48.942;9.256;2023-08-12T04:01:20;6.10;;;5.80;;
434;SDS011;204;48.942;9.256;2023-08-12T04:03:45;6.93;;;6.53;;
434;SDS011;204;48.942;9.256;2023-08-12T04:06:11;7.67;;;7.17;;
434;SDS011;204;48.942;9.256;2023-08-12T04:08:36;7.57;;;7.17;;
434;SDS011;204;48.942;9.256;2023-08-12T04:11:02;7.90;;;7.37;;
434;SDS011;204;48.942;9.256;2023-08-12T04:13:27;6.63;;;6.23;;
434;SDS011;204;48.942;9.256;2023-08-12T04:15:53;7.10;;;6.70;;
434;SDS011;204;48.942;9.256;2023-08-12T04:18:18;8.03;;;7.63;;
434;SDS011;204;48.942;9.256;2023-08-12T04:20:45;8.13;;;7.73;;
434;SDS011;204;48.942;9.256;2023-08-12T04:23:12;8.53;;;6.70;;
434;SDS011;204;48.942;9.256;2023-08-12T04:25:38;7.70;;;7.30;;
434;SDS011;204;48.942;9.256;2023-08-12T04:28:03;7.43;;;6.50;;
434;SDS011;204;48.942;9.256;2023-08-12T04:30:29;6.60;;;6.20;;
434;SDS011;204;48.942;9.256;2023-08-12T04:32:55;6.83;;;6.47;;
434;SDS011;204;48.942;9.256;2023-08-12T04:35:20;7.23;;;6.67;;
434;SDS011;204;48.942;9.256;2023-08-12T04:37:46;7.50;;;5.87;;
434;SDS011;204;48.942;9.256;2023-08-12T04:40:11;7.00;;;6.60;;
434;SDS011;204;48.942;9.256;2023-08-12T04:42:37;11.00;;;6.63;;
434;SDS011;204;48.942;9.256;2023-08-12T04:45:03;6.67;;;6.27;;
434;SDS011;204;48.942;9.256;2023-08-12T04:47:29;8.57;;;6.97;;
434;SDS011;204;48.942;9.256;2023-08-12T04:49:54;7.00;;;6.10;;
434;SDS011;204;48.942;9.256;2023-08-12T04:52:20;8.40;;;6.63;;
434;SDS011;204;48.942;9.256;2023-08-12T04:54:46;6.03;;;5.73;;
434;SDS011;204;48.942;9.256;2023-08-12T04:57:11;6.97;;;6.57;;
434;SDS011;204;48.942;9.256;2023-08-12T04:59:37;7.13;;;6.73;;
434;SDS011;204;48.942;9.256;2023-08-12T05:02:02;6.83;;;6.43;;
434;SDS011;204;48.942;9.256;2023-08-12T05:04:28;9.57;;;6.67;;
434;SDS011;204;48.942;9.256;2023-08-12T05:06:54;7.83;;;6.40;;
434;SDS011;204;48.942;9.256;2023-08-12T05:09:19;6.23;;;5.90;;
434;SDS011;204;48.942;9.256;2023-08-12T05:11:45;7.20;;;6.80;;
434;SDS011;204;48.942;9.256;2023-08-12T05:14:10;6.20;;;5.87;;
434;SDS011;204;48.942;9.256;2023-08-12T05:16:36;10.80;;;6.80;;
434;SDS011;204;48.942;9.256;2023-08-12T05:19:02;7.57;;;7.17;;
434;SDS011;204;48.942;9.256;2023-08-12T05:21:27;14.50;;;7.83;;
434;SDS011;204;48.942;9.256;2023-08-12T05:23:53;8.53;;;7.50;;
434;SDS011;204;48.942;9.256;2023-08-12T05:26:18;8.27;;;7.83;;
434;SDS011;204;48.942;9.256;2023-08-12T05:28:45;8.20;;;7.80;;
434;SDS011;204;48.942;9.256;2023-08-12T05:31:11;7.20;;;6.80;;
434;SDS011;204;48.942;9.256;2023-08-12T05:33:37;7.20;;;6.80;;
434;SDS011;204;48.942;9.256;2023-08-12T05:36:03;7.60;;;7.10;;
434;SDS011;204;48.942;9.256;2023-08-12T05:38:28;6.97;;;6.57;;
434;SDS011;204;48.942;9.256;2023-08-12T05:40:54;7.70;;;7.30;;
434;SDS011;204;48.942;9.256;2023-08-12T05:43:20;7.87;;;7.07;;
434;SDS011;204;48.942;9.256;2023-08-12T05:45:45;6.57;;;6.17;;
434;SDS011;204;48.942;9.256;2023-08-12T05:48:11;8.10;;;7.70;;
434;SDS011;204;48.942;9.256;2023-08-12T05:50:36;8.63;;;8.13;;
434;SDS011;204;48.942;9.256;2023-08-12T05:53:02;9.87;;;8.57;;
434;SDS011;204;48.942;9.256;2023-08-12T05:55:28;9.37;;;8.87;;
434;SDS011;204;48.942;9.256;2023-08-12T05:57:53;9.40;;;8.90;;
434;SDS011;204;48.942;9.256;2023-08-12T06:00:19;9.37;;;8.87;;
434;SDS011;204;48.942;9.256;2023-08-12T06:02:44;9.00;;;8.50;;
434;SDS011;204;48.942;9.256;2023-08-12T06:05:10;11.00;;;9.73;;
434;SDS011;204;48.942;9.256;2023-08-12T06:07:35;8.80;;;8.30;;
434;SDS011;204;48.942;9.256;2023-08-12T06:10:01;10.47;;;8.57;;
434;SDS011;204;48.942;9.256;2023-08-12T06:12:28;8.63;;;8.13;;
434;SDS011;204;48.942;9.256;2023-08-12T06:14:53;7.83;;;7.47;;
434;SDS011;204;48.942;9.256;2023-08-12T06:17:19;8.63;;;7.97;;
434;SDS011;204;48.942;9.256;2023-08-12T06:19:45;8.70;;;8.20;;
434;SDS011;204;48.942;9.256;2023-08-12T06:22:10;6.73;;;6.40;;
434;SDS011;204;48.942;9.256;2023-08-12T06:24:36;7.33;;;6.93;;
434;SDS011;204;48.942;9.256;2023-08-12T06:27:01;6.53;;;6.13;;
434;SDS011;204;48.942;9.256;2023-08-12T06:29:27;6.00;;;5.70;;
434;SDS011;204;48.942;9.256;2023-08-12T06:31:53;7.07;;;6.67;;
434;SDS011;204;48.942;9.256;2023-08-12T06:34:18;8.53;;;7.37;;
434;SDS011;204;48.942;9.256;2023-08-12T06:36:44;6.83;;;6.33;;
434;SDS011;204;48.942;9.256;2023-08-12T06:39:09;7.70;;;7.30;;
434;SDS011;204;48.942;9.256;2023-08-12T06:41:35;10.20;;;7.27;;
434;SDS011;204;48.942;9.256;2023-08-12T06:44:00;7.10;;;6.30;;
434;SDS011;204;48.942;9.256;2023-08-12T06:46:26;7.87;;;6.87;;
434;SDS011;204;48.942;9.256;2023-08-12T06:48:53;7.20;;;6.60;;
434;SDS011;204;48.942;9.256;2023-08-12T06:51:18;9.00;;;7.90;;
434;SDS011;204;48.942;9.256;2023-08-12T06:53:44;6.87;;;6.47;;
434;SDS011;204;48.942;9.256;2023-08-12T06:56:10;7.20;;;6.80;;
434;SDS011;204;48.942;9.256;2023-08-12T06:58:35;6.20;;;5.90;;
434;SDS011;204;48.942;9.256;2023-08-12T07:01:01;6.80;;;6.40;;
434;SDS011;204;48.942;9.256;2023-08-12T07:03:26;6.97;;;6.57;;
434;SDS011;204;48.942;9.256;2023-08-12T07:05:52;8.67;;;7.07;;
434;SDS011;204;48.942;9.256;2023-08-12T07:08:19;7.23;;;6.83;;
434;SDS011;204;48.942;9.256;2023-08-12T07:10:45;7.50;;;7.10;;
434;SDS011;204;48.942;9.256;2023-08-12T07:13:10;8.20;;;7.47;;
434;SDS011;204;48.942;9.256;2023-08-12T07:15:36;7.70;;;7.30;;
434;SDS011;204;48.942;9.256;2023-08-12T07:18:02;10.17;;;9.67;;
434;SDS011;204;48.942;9.256;2023-08-12T07:20:28;11.23;;;10.63;;
434;SDS011;204;48.942;9.256;2023-08-12T07:22:53;11.50;;;10.90;;
434;SDS011;204;48.942;9.256;2023-08-12T07:25:19;9.47;;;8.97;;
434;SDS011;204;48.942;9.256;2023-08-12T07:27:44;9.80;;;9.30;;
434;SDS011;204;48.942;9.256;2023-08-12T07:30:10;8.80;;;8.30;;
434;SDS011;204;48.942;9.256;2023-08-12T07:32:37;9.43;;;8.93;;
434;SDS011;204;48.942;9.256;2023-08-12T07:35:03;8.80;;;8.30;;
434;SDS011;204;48.942;9.256;2023-08-12T07:37:30;8.43;;;7.97;;
434;SDS011;204;48.942;9.256;2023-08-12T07:39:56;8.03;;;7.63;;
434;SDS011;204;48.942;9.256;2023-08-12T07:42:21;10.73;;;7.60;;
434;SDS011;204;48.942;9.256;2023-08-12T07:44:47;9.57;;;8.07;;
434;SDS011;204;48.942;9.256;2023-08-12T07:47:13;7.77;;;7.37;;
434;SDS011;204;48.942;9.256;2023-08-12T07:49:40;6.70;;;6.30;;
434;SDS011;204;48.942;9.256;2023-08-12T07:52:06;7.10;;;6.63;;
434;SDS011;204;48.942;9.256;2023-08-12T07:54:31;6.80;;;6.40;;
434;SDS011;204;48.942;9.256;2023-08-12T07:56:57;6.67;;;6.30;;
434;SDS011;204;48.942;9.256;2023-08-12T07:59:22;7.13;;;6.60;;
434;SDS011;204;48.942;9.256;2023-08-12T08:01:48;9.10;;;5.87;;
434;SDS011;204;48.942;9.256;2023-08-12T08:04:13;5.20;;;4.93;;
434;SDS011;204;48.942;9.256;2023-08-12T08:06:39;6.83;;;6.43;;
434;SDS011;204;48.942;9.256;2023-08-12T08:09:04;5.67;;;5.37;;
434;SDS011;204;48.942;9.256;2023-08-12T08:11:30;5.10;;;4.80;;
434;SDS011;204;48.942;9.256;2023-08-12T08:13:57;5.40;;;5.00;;
434;SDS011;204;48.942;9.256;2023-08-12T08:16:24;5.67;;;5.37;;
434;SDS011;204;48.942;9.256;2023-08-12T08:18:49;5.67;;;5.37;;
434;SDS011;204;48.942;9.256;2023-08-12T08:21:15;5.97;;;5.70;;
434;SDS011;204;48.942;9.256;2023-08-12T08:23:41;5.83;;;5.53;;
434;SDS011;204;48.942;9.256;2023-08-12T08:26:07;7.80;;;7.27;;
434;SDS011;204;48.942;9.256;2023-08-12T08:28:33;9.23;;;8.73;;
434;SDS011;204;48.942;9.256;2023-08-12T08:30:59;4.73;;;4.43;;
434;SDS011;204;48.942;9.256;2023-08-12T08:33:25;5.97;;;4.80;;
434;SDS011;204;48.942;9.256;2023-08-12T08:35:51;7.53;;;5.80;;
434;SDS011;204;48.942;9.256;2023-08-12T08:38:18;5.50;;;5.20;;
434;SDS011;204;48.942;9.256;2023-08-12T08:40:44;5.97;;;5.67;;
434;SDS011;204;48.942;9.256;2023-08-12T08:43:09;7.27;;;5.60;;
434;SDS011;204;48.942;9.256;2023-08-12T08:45:36;4.80;;;4.47;;
434;SDS011;204;48.942;9.256;2023-08-12T08:48:03;6.20;;;5.40;;
434;SDS011;204;48.942;9.256;2023-08-12T08:50:31;6.00;;;5.57;;
434;SDS011;204;48.942;9.256;2023-08-12T08:52:57;5.67;;;5.37;;
434;SDS011;204;48.942;9.256;2023-08-12T08:55:24;5.43;;;5.13;;
434;SDS011;204;48.942;9.256;2023-08-12T08:57:50;5.33;;;5.07;;
434;SDS011;204;48.942;9.256;2023-08-12T09:00:16;5.60;;;5.30;;
434;SDS011;204;48.942;9.256;2023-08-12T09:02:46;4.70;;;4.40;;
434;SDS011;204;48.942;9.256;2023-08-12T09:05:15;4.80;;;4.50;;
434;SDS011;204;48.942;9.256;2023-08-12T09:07:42;4.97;;;4.70;;
434;SDS011;204;48.942;9.256;2023-08-12T09:10:09;5.83;;;4.40;;
434;SDS011;204;48.942;9.256;2023-08-12T09:12:36;4.97;;;4.67;;
434;SDS011;204;48.942;9.256;2023-08-12T09:15:02;4.77;;;4.47;;
434;SDS011;204;48.942;9.256;2023-08-12T09:17:29;5.07;;;4.77;;
434;SDS011;204;48.942;9.256;2023-08-12T09:19:55;4.33;;;4.03;;
434;SDS011;204;48.942;9.256;2023-08-12T09:22:20;5.10;;;4.80;;
434;SDS011;204;48.942;9.256;2023-08-12T09:24:50;4.73;;;4.43;;
434;SDS011;204;48.942;9.256;2023-08-12T09:27:20;5.40;;;5.10;;
434;SDS011;204;48.942;9.256;2023-08-12T09:29:46;7.03;;;5.13;;
434;SDS011;204;48.942;9.256;2023-08-12T09:32:12;5.77;;;5.43;;
434;SDS011;204;48.942;9.256;2023-08-12T09:34:52;5.07;;;4.77;;
434;SDS011;204;48.942;9.256;2023-08-12T09:37:19;5.13;;;4.83;;
434;SDS011;204;48.942;9.256;2023-08-12T09:39:46;5.40;;;3.87;;
434;SDS011;204;48.942;9.256;2023-08-12T09:42:13;5.50;;;5.20;;
434;SDS011;204;48.942;9.256;2023-08-12T09:44:40;6.17;;;4.70;;
434;SDS011;204;48.942;9.256;2023-08-12T09:47:06;4.90;;;4.60;;
434;SDS011;204;48.942;9.256;2023-08-12T09:49:35;5.93;;;5.50;;
434;SDS011;204;48.942;9.256;2023-08-12T09:52:02;5.77;;;5.47;;
434;SDS011;204;48.942;9.256;2023-08-12T09:54:29;6.33;;;5.97;;
434;SDS011;204;48.942;9.256;2023-08-12T09:56:57;7.53;;;6.30;;
434;SDS011;204;48.942;9.256;2023-08-12T09:59:24;5.47;;;5.20;;
434;SDS011;204;48.942;9.256;2023-08-12T10:01:54;5.67;;;5.37;;
434;SDS011;204;48.942;9.256;2023-08-12T10:04:21;5.80;;;5.50;;
434;SDS011;204;48.942;9.256;2023-08-12T10:06:49;5.30;;;5.00;;
434;SDS011;204;48.942;9.256;2023-08-12T10:09:15;5.60;;;5.17;;
434;SDS011;204;48.942;9.256;2023-08-12T10:11:42;5.00;;;4.70;;
434;SDS011;204;48.942;9.256;2023-08-12T10:14:11;6.20;;;5.90;;
434;SDS011;204;48.942;9.256;2023-08-12T10:16:37;5.53;;;5.23;;
434;SDS011;204;48.942;9.256;2023-08-12T10:19:05;5.30;;;5.00;;
434;SDS011;204;48.942;9.256;2023-08-12T10:21:31;5.13;;;4.83;;
434;SDS011;204;48.942;9.256;2023-08-12T10:23:57;6.00;;;4.80;;
434;SDS011;204;48.942;9.256;2023-08-12T10:26:26;5.77;;;5.47;;
434;SDS011;204;48.942;9.256;2023-08-12T10:28:53;5.03;;;4.73;;
434;SDS011;204;48.942;9.256;2023-08-12T10:31:19;6.10;;;5.80;;
434;SDS011;204;48.942;9.256;2023-08-12T10:33:45;5.07;;;4.77;;
434;SDS011;204;48.942;9.256;2023-08-12T10:36:14;7.07;;;4.83;;
434;SDS011;204;48.942;9.256;2023-08-12T10:38:41;6.43;;;4.40;;
434;SDS011;204;48.942;9.256;2023-08-12T10:41:21;5.40;;;5.10;;
434;SDS011;204;48.942;9.256;2023-08-12T10:43:48;5.50;;;5.20;;
434;SDS011;204;48.942;9.256;2023-08-12T10:48:59;5.53;;;5.00;;
434;SDS011;204;48.942;9.256;2023-08-12T10:51:40;7.27;;;5.20;;
434;SDS011;204;48.942;9.256;2023-08-12T11:02:26;5.40;;;5.10;;
434;SDS011;204;48.942;9.256;2023-08-12T11:04:57;5.97;;;5.23;;
434;SDS011;204;48.942;9.256;2023-08-12T11:07:41;5.03;;;4.70;;
434;SDS011;204;48.942;9.256;2023-08-12T11:12:40;5.20;;;4.90;;
434;SDS011;204;48.942;9.256;2023-08-12T11:15:07;4.97;;;4.67;;
434;SDS011;204;48.942;9.256;2023-08-12T11:17:35;5.10;;;4.70;;
434;SDS011;204;48.942;9.256;2023-08-12T11:20:04;4.63;;;4.33;;
434;SDS011;204;48.942;9.256;2023-08-12T11:22:32;5.87;;;5.00;;
434;SDS011;204;48.942;9.256;2023-08-12T11:25:01;8.03;;;5.17;;
434;SDS011;204;48.942;9.256;2023-08-12T11:27:27;5.57;;;5.20;;
434;SDS011;204;48.942;9.256;2023-08-12T11:29:53;5.07;;;4.77;;
434;SDS011;204;48.942;9.256;2023-08-12T11:32:18;4.93;;;4.60;;
434;SDS011;204;48.942;9.256;2023-08-12T11:34:44;4.80;;;4.50;;
434;SDS011;204;48.942;9.256;2023-08-12T11:37:10;5.00;;;4.70;;
434;SDS011;204;48.942;9.256;2023-08-12T11:39:37;6.90;;;4.33;;
434;SDS011;204;48.942;9.256;2023-08-12T11:42:03;4.40;;;4.10;;
434;SDS011;204;48.942;9.256;2023-08-12T11:44:29;4.50;;;4.00;;
434;SDS011;204;48.942;9.256;2023-08-12T11:46:54;7.13;;;4.10;;
434;SDS011;204;48.942;9.256;2023-08-12T11:49:20;3.80;;;3.60;;
434;SDS011;204;48.942;9.256;2023-08-12T11:51:46;5.10;;;4.80;;
434;SDS011;204;48.942;9.256;2023-08-12T11:54:16;4.73;;;4.43;;
434;SDS011;204;48.942;9.256;2023-08-12T11:56:41;4.80;;;4.50;;
434;SDS011;204;48.942;9.256;2023-08-12T11:59:08;5.53;;;4.93;;
434;SDS011;204;48.942;9.256;2023-08-12T12:01:33;5.47;;;5.17;;
434;SDS011;204;48.942;9.256;2023-08-12T12:03:59;7.13;;;5.50;;
434;SDS011;204;48.942;9.256;2023-08-12T12:06:31;25.63;;;9.57;;
434;SDS011;204;48.942;9.256;2023-08-12T12:09:05;8.67;;;4.60;;
434;SDS011;204;48.942;9.256;2023-08-12T12:11:34;30.63;;;4.07;;
434;SDS011;204;48.942;9.256;2023-08-12T12:14:05;5.17;;;2.83;;
434;SDS011;204;48.942;9.256;2023-08-12T12:16:38;2.30;;;1.37;;
434;SDS011;204;48.942;9.256;2023-08-12T12:19:21;2.37;;;2.17;;
434;SDS011;204;48.942;9.256;2023-08-12T12:21:49;2.00;;;1.90;;
434;SDS011;204;48.942;9.256;2023-08-12T12:24:18;2.93;;;2.33;;
434;SDS011;204;48.942;9.256;2023-08-12T12:26:45;4.67;;;3.70;;
434;SDS011;204;48.942;9.256;2023-08-12T15:46:41;5.43;;;5.13;;
434;SDS011;204;48.942;9.256;2023-08-12T15:49:07;5.10;;;4.80;;
434;SDS011;204;48.942;9.256;2023-08-12T15:51:35;5.77;;;4.80;;
434;SDS011;204;48.942;9.256;2023-08-12T15:54:02;6.40;;;5.30;;
434;SDS011;204;48.942;9.256;2023-08-12T15:56:28;5.37;;;5.07;;
434;SDS011;204;48.942;9.256;2023-08-12T15:58:54;7.00;;;5.43;;
434;SDS011;204;48.942;9.256;2023-08-12T16:01:20;5.20;;;4.90;;
434;SDS011;204;48.942;9.256;2023-08-12T16:03:46;6.50;;;4.63;;
434;SDS011;204;48.942;9.256;2023-08-12T16:06:11;6.67;;;5.37;;
434;SDS011;204;48.942;9.256;2023-08-12T16:08:37;7.47;;;4.60;;
434;SDS011;204;48.942;9.256;2023-08-12T16:11:03;6.67;;;5.07;;
434;SDS011;204;48.942;9.256;2023-08-12T16:13:29;9.63;;;6.60;;
434;SDS011;204;48.942;9.256;2023-08-12T16:15:56;22.00;;;7.23;;
434;SDS011;204;48.942;9.256;2023-08-12T16:18:23;77.63;;;13.47;;
434;SDS011;204;48.942;9.256;2023-08-12T16:20:49;14.23;;;7.23;;
434;SDS011;204;48.942;9.256;2023-08-12T16:23:14;9.57;;;9.07;;
434;SDS011;204;48.942;9.256;2023-08-12T16:25:40;11.80;;;9.10;;
434;SDS011;204;48.942;9.256;2023-08-12T16:28:05;10.77;;;9.50;;
434;SDS011;204;48.942;9.256;2023-08-12T16:30:31;10.10;;;9.63;;
434;SDS011;204;48.942;9.256;2023-08-12T16:32:57;10.73;;;10.13;;
434;SDS011;204;48.942;9.256;2023-08-12T16:35:23;17.10;;;11.97;;
434;SDS011;204;48.942;9.256;2023-08-12T16:37:48;11.77;;;11.17;;
434;SDS011;204;48.942;9.256;2023-08-12T16:40:14;13.23;;;11.67;;
434;SDS011;204;48.942;9.256;2023-08-12T16:42:39;12.63;;;11.00;;
434;SDS011;204;48.942;9.256;2023-08-12T16:45:05;13.00;;;12.30;;
434;SDS011;204;48.942;9.256;2023-08-12T16:47:31;16.97;;;15.70;;
434;SDS011;204;48.942;9.256;2023-08-12T16:49:57;21.97;;;17.03;;
434;SDS011;204;48.942;9.256;2023-08-12T16:52:22;21.53;;;18.10;;
434;SDS011;204;48.942;9.256;2023-08-12T16:54:48;19.43;;;18.30;;
434;SDS011;204;48.942;9.256;2023-08-12T16:57:14;21.90;;;17.37;;
434;SDS011;204;48.942;9.256;2023-08-12T16:59:39;20.90;;;16.20;;
434;SDS011;204;48.942;9.256;2023-08-12T17:02:05;16.97;;;15.17;;
434;SDS011;204;48.942;9.256;2023-08-12T17:04:31;19.13;;;16.00;;
434;SDS011;204;48.942;9.256;2023-08-12T17:06:56;19.00;;;15.97;;
434;SDS011;204;48.942;9.256;2023-08-12T17:09:22;16.37;;;15.57;;
434;SDS011;204;48.942;9.256;2023-08-12T17:11:48;18.27;;;14.10;;
434;SDS011;204;48.942;9.256;2023-08-12T17:14:14;20.17;;;15.73;;
434;SDS011;204;48.942;9.256;2023-08-12T17:16:39;16.40;;;15.30;;
434;SDS011;204;48.942;9.256;2023-08-12T17:19:05;25.40;;;22.17;;
434;SDS011;204;48.942;9.256;2023-08-12T17:21:31;17.70;;;15.97;;
434;SDS011;204;48.942;9.256;2023-08-12T17:23:57;17.50;;;15.00;;
434;SDS011;204;48.942;9.256;2023-08-12T17:26:22;15.53;;;14.73;;
434;SDS011;204;48.942;9.256;2023-08-12T17:28:48;19.70;;;17.40;;
434;SDS011;204;48.942;9.256;2023-08-12T17:31:15;20.87;;;15.50;;
434;SDS011;204;48.942;9.256;2023-08-12T17:33:41;15.83;;;15.03;;
434;SDS011;204;48.942;9.256;2023-08-12T17:36:07;18.60;;;15.30;;
434;SDS011;204;48.942;9.256;2023-08-12T17:38:33;16.07;;;14.87;;
434;SDS011;204;48.942;9.256;2023-08-12T17:40:58;14.40;;;13.70;;
434;SDS011;204;48.942;9.256;2023-08-12T17:43:24;13.60;;;12.80;;
434;SDS011;204;48.942;9.256;2023-08-12T17:45:50;13.13;;;12.43;;
434;SDS011;204;48.942;9.256;2023-08-12T17:48:16;14.97;;;12.17;;
434;SDS011;204;48.942;9.256;2023-08-12T17:50:41;11.03;;;10.40;;
434;SDS011;204;48.942;9.256;2023-08-12T17:53:07;13.03;;;12.13;;
434;SDS011;204;48.942;9.256;2023-08-12T17:55:33;9.70;;;9.20;;
434;SDS011;204;48.942;9.256;2023-08-12T17:57:58;9.60;;;9.10;;
434;SDS011;204;48.942;9.256;2023-08-12T18:00:24;11.87;;;10.60;;
434;SDS011;204;48.942;9.256;2023-08-12T18:02:50;10.33;;;9.83;;
434;SDS011;204;48.942;9.256;2023-08-12T18:05:15;12.63;;;11.97;;
434;SDS011;204;48.942;9.256;2023-08-12T18:07:41;10.63;;;10.03;;
434;SDS011;204;48.942;9.256;2023-08-12T18:10:06;12.57;;;11.93;;
434;SDS011;204;48.942;9.256;2023-08-12T18:12:32;12.07;;;11.47;;
434;SDS011;204;48.942;9.256;2023-08-12T18:14:58;13.50;;;12.80;;
434;SDS011;204;48.942;9.256;2023-08-12T18:17:24;16.10;;;15.30;;
434;SDS011;204;48.942;9.256;2023-08-12T18:19:52;15.73;;;13.03;;
434;SDS011;204;48.942;9.256;2023-08-12T18:22:18;15.73;;;12.80;;
434;SDS011;204;48.942;9.256;2023-08-12T18:24:43;12.57;;;11.53;;
434;SDS011;204;48.942;9.256;2023-08-12T18:27:09;13.90;;;13.03;;
434;SDS011;204;48.942;9.256;2023-08-12T18:29:35;15.53;;;14.17;;
434;SDS011;204;48.942;9.256;2023-08-12T18:32:01;16.00;;;15.20;;
434;SDS011;204;48.942;9.256;2023-08-12T18:34:27;15.90;;;15.00;;
434;SDS011;204;48.942;9.256;2023-08-12T18:36:53;15.63;;;14.87;;
434;SDS011;204;48.942;9.256;2023-08-12T18:39:19;16.37;;;14.43;;
434;SDS011;204;48.942;9.256;2023-08-12T18:41:44;21.37;;;14.33;;
434;SDS011;204;48.942;9.256;2023-08-12T18:44:10;15.70;;;14.77;;
434;SDS011;204;48.942;9.256;2023-08-12T18:46:36;15.27;;;13.80;;
434;SDS011;204;48.942;9.256;2023-08-12T18:49:02;17.30;;;15.73;;
434;SDS011;204;48.942;9.256;2023-08-12T18:51:28;26.43;;;16.73;;
434;SDS011;204;48.942;9.256;2023-08-12T18:53:53;18.53;;;15.90;;
434;SDS011;204;48.942;9.256;2023-08-12T18:56:19;20.43;;;17.00;;
434;SDS011;204;48.942;9.256;2023-08-12T18:58:45;19.90;;;15.73;;
434;SDS011;204;48.942;9.256;2023-08-12T19:01:11;18.20;;;16.13;;
434;SDS011;204;48.942;9.256;2023-08-12T19:03:36;22.77;;;15.50;;
434;SDS011;204;48.942;9.256;2023-08-12T19:06:02;17.20;;;16.30;;
434;SDS011;204;48.942;9.256;2023-08-12T19:08:29;20.53;;;18.13;;